createdAt,value
2018-02-17T00:00:04.367Z,970.37
2018-02-17T00:15:05.257Z,970.59
2018-02-17T00:30:07.891Z,969.94
2018-02-17T00:45:06.348Z,969.78
2018-02-17T01:00:04.850Z,969.56
2018-02-17T01:15:05.229Z,969.48
2018-02-17T01:30:05.048Z,969.16
2018-02-17T01:45:04.531Z,968.75
2018-02-17T02:00:04.939Z,968.51
2018-02-17T02:15:05.265Z,968.4
2018-02-17T02:30:04.427Z,967.76
2018-02-17T02:45:05.509Z,968.03
2018-02-17T03:00:04.730Z,968.48
2018-02-17T03:15:04.649Z,967.92
2018-02-17T03:30:04.914Z,967.7
2018-02-17T03:45:06.087Z,967.49
2018-02-17T04:01:12.642Z,967.43
2018-02-17T04:15:04.568Z,967.11
2018-02-17T04:30:05.569Z,966.95
2018-02-17T04:45:04.714Z,966.84
2018-02-17T05:00:04.818Z,966.76
2018-02-17T05:15:04.900Z,966.51
2018-02-17T05:30:06.518Z,959.41
2018-02-17T05:45:05.099Z,959.54
2018-02-17T06:00:05.192Z,959.57
2018-02-17T06:15:05.081Z,959.65
2018-02-17T06:30:05.264Z,959.97
2018-02-17T06:45:04.808Z,959.7
2018-02-17T07:00:04.962Z,959.65
2018-02-17T07:15:04.420Z,959.54
2018-02-17T07:30:05.194Z,959.38
2018-02-17T07:45:04.614Z,959.3
2018-02-17T08:00:07.757Z,959.35
2018-02-17T08:15:06.026Z,958.98
2018-02-17T08:30:07.768Z,958.71
2018-02-17T08:45:05.896Z,959.01
2018-02-17T09:00:07.598Z,958.79
2018-02-17T09:15:04.589Z,958.6
2018-02-17T09:30:06.342Z,958.42
2018-02-17T09:45:05.472Z,958.6
2018-02-17T10:00:04.553Z,958.18
2018-02-17T10:15:04.726Z,958.12
2018-02-17T10:30:04.853Z,957.91
2018-02-17T10:45:05.506Z,957.72
2018-02-17T11:00:05.330Z,964.76
2018-02-17T11:15:06.441Z,957.24
2018-02-17T11:30:06.220Z,957.13
2018-02-17T11:45:08.109Z,957
2018-02-17T12:00:06.498Z,964.03
2018-02-17T12:15:04.508Z,964.03
2018-02-17T12:30:06.264Z,964.08
2018-02-17T12:45:07.667Z,963.76
2018-02-17T13:00:04.617Z,963.41
2018-02-17T13:15:06.122Z,963.87
2018-02-17T13:32:16.480Z,963.38
2018-02-17T13:45:04.432Z,963.6
2018-02-17T14:00:08.018Z,963.84
2018-02-17T14:15:04.549Z,963.71
2018-02-17T14:30:06.176Z,963.73
2018-02-17T14:45:04.628Z,963.92
2018-02-17T15:00:04.989Z,964.38
2018-02-17T15:15:04.996Z,965.03
2018-02-17T15:30:04.717Z,964.98
2018-02-17T15:45:05.133Z,964.79
2018-02-17T16:00:04.541Z,965.16
2018-02-17T16:15:04.528Z,965
2018-02-17T16:30:05.317Z,965.6
2018-02-17T16:45:04.867Z,966.14
2018-02-17T17:00:04.939Z,967
2018-02-17T17:15:04.592Z,967.27
2018-02-17T17:30:05.266Z,960.26
2018-02-17T17:45:05.895Z,960.85
2018-02-17T18:00:05.303Z,961.04
2018-02-17T18:15:08.306Z,961.6
2018-02-17T18:30:04.936Z,961.98
2018-02-17T18:45:05.276Z,962.51
2018-02-17T19:00:05.157Z,963.26
2018-02-17T19:15:04.657Z,963.4
2018-02-17T19:30:04.401Z,963.29
2018-02-17T19:45:04.928Z,963.82
2018-02-17T20:00:05.268Z,964.15
2018-02-17T20:15:04.641Z,964.25
2018-02-17T20:30:04.818Z,964.71
2018-02-17T20:45:04.574Z,965.16
2018-02-17T21:00:08.112Z,964.97
2018-02-17T21:15:04.741Z,965.64
2018-02-17T21:30:04.515Z,966.18
2018-02-17T21:45:04.412Z,966.85
2018-02-17T22:00:04.916Z,967.06
2018-02-17T22:15:05.337Z,967.17
2018-02-17T22:30:04.965Z,967.87
2018-02-17T22:45:04.868Z,967.73
2018-02-17T23:00:05.287Z,967.76
2018-02-17T23:15:05.231Z,968.35
2018-02-17T23:30:04.828Z,967.95
2018-02-17T23:45:05.313Z,968.21
